Hlavní strana
METAR-TAF:

METAR-TAF

Letiště :

Letiště Adolfa Suáreze

Madrid, Španělsko

zeměpisná šířka: 40-27N, zeměpisná délka: 003-33W, výška: 609 m

Aktuální stav počasí

Zpráva byla vytvořena před 16 minutami, v 22:30 UTC
Severoseverozápadní vítr 4 kt, proměnlivý mezi severozápadním a severoseverovýchodním
Teplota 6°C
Vlhkost vzduchu 81%
Tlak 1031 hPa
Viditelnost 10 km a více
Polojasno ve výšce 6000 ft

METAR: LEMD 182230Z 33004KT 310V020 9999 SCT060 06/03 Q1031 NOSIG

Čas: 23:46 (22:46 UTC)

Předpověď počasí

Zpráva byla vytvořena před 5 hodinami a 46 minutami, v 17:00 UTC
Předpověď platná od 18 v 18 UTC do 19 v 24 UTC
Severoseverovýchodní vítr 7 kt
Viditelnost 10 km a více
Polojasno ve výšce 3000 ft

TAF: LEMD 181700Z 1818/1924 03007KT 9999 SCT030 TX15/1916Z TN01/1907Z

Stav a předpovědi počasí z více než 4 000 letišť (zprávy METAR a TAF).

Červené a žluté tečky na mapě představují dostupné meteorologické stanice.

Když kurzor umístíte na tečku, zobrazí se název stanice.

Pak kliknutím zobrazíte stav a předpověď počasí.

Chcete-li změnit mapu, kliknutím na zelené tlačítko se znaménkem +mapu přiblížíte, kliknutím na zelené tlačítko se znaménkem – mapu oddálíte a kliknutím na zelené šipky přejdete na sousední mapy.


METAR-TAF: